createdAt,value
2019-05-02T00:02:30.038Z,21.60
2019-05-02T00:05:10.067Z,21.70
2019-05-02T00:07:48.375Z,21.90
2019-05-02T00:10:26.808Z,21.90
2019-05-02T00:13:04.222Z,22.00
2019-05-02T00:15:41.782Z,22.00
2019-05-02T00:18:19.947Z,22.10
2019-05-02T00:21:01.370Z,22.10
2019-05-02T00:23:38.070Z,22.10
2019-05-02T00:26:17.957Z,22.30
2019-05-02T00:28:59.409Z,22.50
2019-05-02T00:31:37.003Z,22.50
2019-05-02T00:34:14.573Z,22.60
2019-05-02T00:36:52.018Z,23.00
2019-05-02T00:39:31.496Z,22.90
2019-05-02T00:42:12.866Z,22.80
2019-05-02T00:44:49.027Z,22.90
2019-05-02T00:47:47.018Z,22.90
2019-05-02T00:50:22.994Z,23.10
2019-05-02T00:53:01.835Z,23.10
2019-05-02T00:55:39.635Z,23.30
2019-05-02T00:58:19.886Z,23.40
2019-05-02T01:03:52.153Z,24.20
2019-05-02T01:06:31.869Z,24.00
2019-05-02T01:11:47.265Z,24.40
2019-05-02T01:17:04.729Z,24.60
2019-05-02T01:19:42.220Z,24.60
2019-05-02T01:22:21.990Z,24.70
2019-05-02T01:25:03.926Z,24.80
2019-05-02T01:27:53.973Z,25.20
2019-05-02T01:30:56.066Z,24.90
2019-05-02T01:33:44.696Z,24.90
2019-05-02T01:36:26.614Z,24.40
2019-05-02T01:39:07.624Z,25.10
2019-05-02T01:41:42.915Z,24.90
2019-05-02T01:44:20.705Z,24.90
2019-05-02T01:46:58.771Z,24.90
2019-05-02T01:49:36.815Z,24.90
2019-05-02T01:52:18.849Z,24.90
2019-05-02T01:54:56.891Z,24.80
2019-05-02T01:57:34.503Z,24.90
2019-05-02T02:00:14.135Z,24.80
2019-05-02T02:02:51.689Z,24.90
2019-05-02T02:05:32.299Z,25.00
2019-05-02T02:08:09.808Z,25.00
2019-05-02T02:10:50.788Z,25.00
2019-05-02T02:13:31.145Z,25.00
2019-05-02T02:16:09.439Z,25.20
2019-05-02T02:22:04.289Z,24.80
2019-05-02T02:24:46.119Z,24.90
2019-05-02T02:27:24.637Z,25.30
2019-05-02T02:30:04.254Z,24.80
2019-05-02T02:32:42.077Z,24.70
2019-05-02T02:35:21.528Z,24.70
2019-05-02T02:37:59.100Z,24.70
2019-05-02T02:43:32.818Z,24.60
2019-05-02T02:46:08.885Z,24.70
2019-05-02T02:48:48.150Z,24.70
2019-05-02T02:51:31.184Z,24.80
2019-05-02T02:54:10.058Z,24.80
2019-05-02T02:56:48.715Z,24.80
2019-05-02T02:59:26.823Z,24.90
2019-05-02T03:02:10.061Z,25.00
2019-05-02T03:04:45.954Z,25.10
2019-05-02T03:07:25.746Z,24.90
2019-05-02T03:10:06.269Z,24.90
2019-05-02T03:13:03.940Z,24.80
2019-05-02T03:18:21.980Z,24.50
2019-05-02T03:21:01.479Z,24.50
2019-05-02T03:23:39.038Z,24.70
2019-05-02T03:28:58.545Z,24.10
2019-05-02T03:31:33.682Z,24.20
2019-05-02T03:36:50.616Z,24.00
2019-05-02T03:42:07.268Z,24.00
2019-05-02T03:44:55.205Z,24.10
2019-05-02T03:47:25.053Z,24.10
2019-05-02T03:50:02.611Z,24.00
2019-05-02T03:52:44.016Z,23.80
2019-05-02T03:57:57.806Z,23.70
2019-05-02T04:03:10.535Z,23.90
2019-05-02T04:08:23.648Z,23.60
2019-05-02T04:11:37.870Z,23.40
2019-05-02T04:16:48.790Z,23.20
2019-05-02T04:19:28.629Z,23.10
2019-05-02T04:22:08.462Z,23.20
2019-05-02T04:24:54.536Z,23.20
2019-05-02T04:27:27.770Z,23.30
2019-05-02T04:30:11.085Z,23.30
2019-05-02T04:32:49.762Z,23.30
2019-05-02T04:35:28.752Z,23.30
2019-05-02T04:38:09.966Z,23.30
2019-05-02T04:40:46.502Z,23.40
2019-05-02T04:43:20.072Z,23.40
2019-05-02T04:46:00.143Z,23.40
2019-05-02T04:48:44.441Z,23.40
2019-05-02T04:51:19.964Z,23.30
2019-05-02T04:53:55.072Z,23.40
2019-05-02T04:56:33.325Z,23.40
2019-05-02T04:59:18.115Z,23.40
2019-05-02T05:01:56.621Z,23.50
2019-05-02T05:04:33.227Z,23.40
2019-05-02T05:07:13.798Z,23.90
2019-05-02T05:09:57.895Z,23.70
2019-05-02T05:12:32.526Z,23.80
2019-05-02T05:15:13.376Z,23.80
2019-05-02T05:17:50.070Z,24.00
2019-05-02T05:20:28.050Z,23.70
2019-05-02T05:23:08.231Z,23.60
2019-05-02T05:26:03.406Z,23.30
2019-05-02T05:28:42.704Z,23.60
2019-05-02T05:31:16.431Z,23.50
2019-05-02T05:33:54.114Z,23.40
2019-05-02T05:36:33.944Z,23.40
2019-05-02T05:39:12.489Z,23.30
2019-05-02T05:41:52.426Z,23.50
2019-05-02T05:44:32.650Z,23.60
2019-05-02T05:47:12.153Z,23.90
2019-05-02T05:49:47.787Z,24.60
2019-05-02T05:52:27.123Z,24.30
2019-05-02T05:55:04.956Z,24.40
2019-05-02T05:57:42.546Z,24.80
2019-05-02T06:00:22.909Z,24.90
2019-05-02T06:03:10.140Z,24.80
2019-05-02T06:05:42.185Z,24.80
2019-05-02T06:08:20.023Z,24.90
2019-05-02T06:10:57.696Z,24.80
2019-05-02T06:13:38.164Z,24.60
2019-05-02T06:16:18.671Z,24.40
2019-05-02T06:18:58.336Z,24.30
2019-05-02T06:21:39.869Z,24.10
2019-05-02T06:24:15.681Z,24.00
2019-05-02T06:26:54.598Z,23.80
2019-05-02T06:29:31.931Z,23.70
2019-05-02T06:32:14.142Z,23.70
2019-05-02T06:34:50.292Z,23.70
2019-05-02T06:37:27.877Z,23.60
2019-05-02T06:40:08.017Z,23.50
2019-05-02T06:42:45.281Z,23.50
2019-05-02T06:45:26.975Z,22.90
2019-05-02T06:48:06.133Z,23.50
2019-05-02T06:50:46.248Z,23.50
2019-05-02T06:55:59.685Z,23.70
2019-05-02T06:58:41.775Z,23.30
2019-05-02T07:01:21.393Z,23.30
2019-05-02T07:03:57.609Z,23.40
2019-05-02T07:06:56.076Z,23.00
2019-05-02T07:09:16.411Z,22.90
2019-05-02T07:11:57.476Z,23.40
2019-05-02T07:14:34.619Z,23.20
2019-05-02T07:17:32.116Z,23.00
2019-05-02T07:20:08.622Z,23.20
2019-05-02T07:22:46.362Z,23.20
2019-05-02T07:25:25.577Z,23.10
2019-05-02T07:28:09.024Z,23.00
2019-05-02T07:30:47.447Z,23.00
2019-05-02T07:33:24.951Z,22.90
2019-05-02T07:36:02.588Z,23.20
2019-05-02T07:43:56.338Z,22.70
2019-05-02T07:46:32.522Z,23.00
2019-05-02T07:49:10.378Z,22.80
2019-05-02T07:51:52.329Z,22.80
2019-05-02T07:54:31.666Z,22.60
2019-05-02T07:59:43.900Z,22.70
2019-05-02T08:04:57.499Z,22.70
2019-05-02T08:12:48.631Z,22.80
2019-05-02T08:15:26.561Z,22.60
2019-05-02T08:20:39.387Z,22.90
2019-05-02T08:23:20.576Z,22.70
2019-05-02T08:28:46.984Z,22.70
2019-05-02T08:31:25.707Z,22.70
2019-05-02T08:34:05.259Z,22.70
2019-05-02T08:36:47.256Z,22.90
2019-05-02T08:39:31.427Z,22.70
2019-05-02T08:42:06.418Z,22.50
2019-05-02T08:44:51.263Z,22.80
2019-05-02T08:47:28.692Z,22.90
2019-05-02T08:50:09.210Z,22.70
2019-05-02T08:52:48.154Z,22.60
2019-05-02T08:55:25.969Z,22.60
2019-05-02T08:58:06.591Z,22.70
2019-05-02T09:00:43.608Z,22.50
2019-05-02T09:06:05.479Z,22.80
2019-05-02T09:08:35.448Z,22.50
2019-05-02T09:11:15.626Z,22.50
2019-05-02T09:13:53.114Z,22.50
2019-05-02T09:16:32.798Z,22.60
2019-05-02T09:19:15.211Z,22.40
2019-05-02T09:21:49.268Z,22.40
2019-05-02T09:24:26.767Z,22.50
2019-05-02T09:27:06.326Z,22.40
2019-05-02T09:29:45.906Z,22.50
2019-05-02T09:32:26.232Z,22.40
2019-05-02T09:35:06.165Z,22.40
2019-05-02T09:37:43.853Z,22.50
2019-05-02T09:48:17.189Z,22.50
2019-05-02T09:50:54.409Z,22.10
2019-05-02T09:53:33.052Z,22.30
2019-05-02T09:56:12.838Z,22.40
2019-05-02T09:58:55.088Z,22.30
2019-05-02T10:01:38.520Z,22.70
2019-05-02T10:04:18.082Z,22.30
2019-05-02T10:06:56.847Z,22.40
2019-05-02T10:09:36.083Z,22.60
2019-05-02T10:12:15.385Z,22.50
2019-05-02T10:14:53.335Z,22.40
2019-05-02T10:17:37.577Z,22.50
2019-05-02T10:20:15.064Z,22.20
2019-05-02T10:22:53.026Z,22.20
2019-05-02T10:25:38.312Z,22.40
2019-05-02T10:28:10.282Z,22.60
2019-05-02T10:30:52.530Z,22.50
2019-05-02T10:33:32.213Z,22.50
2019-05-02T10:36:06.570Z,22.30
2019-05-02T10:38:48.991Z,22.40
2019-05-02T10:44:02.221Z,22.00
2019-05-02T10:46:52.590Z,22.10
2019-05-02T10:49:56.835Z,22.20
2019-05-02T10:55:37.091Z,22.20
2019-05-02T10:58:17.226Z,22.20
2019-05-02T11:00:54.958Z,22.00
2019-05-02T11:03:42.893Z,22.20
2019-05-02T11:06:17.191Z,22.10
2019-05-02T11:08:55.087Z,22.10
2019-05-02T11:11:33.125Z,22.20
2019-05-02T11:14:36.354Z,22.20
2019-05-02T11:17:32.328Z,22.10
2019-05-02T11:20:14.559Z,22.00
2019-05-02T11:22:54.664Z,22.10
2019-05-02T11:25:32.838Z,21.90
2019-05-02T11:28:12.272Z,22.00
2019-05-02T11:30:52.297Z,21.90
2019-05-02T11:33:32.455Z,22.00
2019-05-02T11:36:09.883Z,22.00
2019-05-02T11:38:53.904Z,22.00
2019-05-02T11:41:26.502Z,21.40
2019-05-02T11:44:06.993Z,22.00
2019-05-02T11:46:46.898Z,21.90
2019-05-02T11:49:27.906Z,22.00
2019-05-02T11:52:05.544Z,22.00
2019-05-02T11:54:44.753Z,22.00
2019-05-02T11:57:28.585Z,22.00
2019-05-02T12:00:05.031Z,22.00
2019-05-02T12:02:58.232Z,22.10
2019-05-02T12:05:42.865Z,21.90
2019-05-02T12:08:22.068Z,21.90
2019-05-02T12:11:01.993Z,21.80
2019-05-02T12:13:40.420Z,21.90
2019-05-02T12:16:20.112Z,21.80
2019-05-02T12:19:09.517Z,21.80
2019-05-02T12:21:41.901Z,21.70
2019-05-02T12:24:19.737Z,21.70
2019-05-02T12:26:57.301Z,21.80
2019-05-02T12:29:35.119Z,21.70
2019-05-02T12:32:15.376Z,21.80
2019-05-02T12:34:52.624Z,21.80
2019-05-02T12:37:30.240Z,21.70
2019-05-02T12:40:08.126Z,21.70
2019-05-02T12:42:47.982Z,21.80
2019-05-02T12:45:25.681Z,21.70
2019-05-02T12:48:04.975Z,21.70
2019-05-02T12:50:44.144Z,21.70
2019-05-02T12:53:21.930Z,21.80
2019-05-02T12:56:02.216Z,21.70
2019-05-02T12:58:39.395Z,21.60
2019-05-02T13:01:18.410Z,21.60
2019-05-02T13:04:13.211Z,21.70
2019-05-02T13:06:53.031Z,21.40
2019-05-02T13:09:32.922Z,21.60
2019-05-02T13:12:15.291Z,21.50
2019-05-02T13:14:52.906Z,21.50
2019-05-02T13:17:34.974Z,21.50
2019-05-02T13:20:12.581Z,21.50
2019-05-02T13:23:22.416Z,21.00
2019-05-02T13:26:02.347Z,21.50
2019-05-02T13:28:43.670Z,21.50
2019-05-02T13:31:32.226Z,21.50
2019-05-02T13:34:26.980Z,21.50
2019-05-02T13:37:06.694Z,21.40
2019-05-02T13:39:54.906Z,21.50
2019-05-02T13:42:36.459Z,21.70
2019-05-02T13:45:35.823Z,21.50
2019-05-02T13:48:17.792Z,21.40
2019-05-02T13:50:55.304Z,21.50
2019-05-02T13:53:32.716Z,21.20
2019-05-02T13:56:32.648Z,21.50
2019-05-02T13:59:11.148Z,21.60
2019-05-02T14:01:51.909Z,21.50
2019-05-02T14:04:32.674Z,21.40
2019-05-02T14:07:15.893Z,21.40
2019-05-02T14:10:02.291Z,21.40
2019-05-02T14:12:56.307Z,21.40
2019-05-02T14:15:41.945Z,21.40
2019-05-02T14:18:28.689Z,21.40
2019-05-02T14:21:02.782Z,21.30
2019-05-02T14:23:42.040Z,21.20
2019-05-02T14:26:30.250Z,21.10
2019-05-02T14:29:07.028Z,21.20
2019-05-02T14:31:42.198Z,21.20
2019-05-02T14:34:47.651Z,21.20
2019-05-02T14:37:25.110Z,21.20
2019-05-02T14:40:13.667Z,21.20
2019-05-02T14:42:53.173Z,21.20
2019-05-02T14:45:34.008Z,21.20
2019-05-02T14:48:21.035Z,21.20
2019-05-02T14:50:52.086Z,21.40
2019-05-02T14:53:32.150Z,21.10
2019-05-02T14:56:22.355Z,21.10
2019-05-02T14:59:02.643Z,21.00
2019-05-02T15:01:46.867Z,21.00
2019-05-02T15:04:24.511Z,20.90
2019-05-02T15:07:02.034Z,21.00
2019-05-02T15:09:41.782Z,20.60
2019-05-02T15:12:22.215Z,21.00
2019-05-02T15:14:59.753Z,21.10
2019-05-02T15:17:37.993Z,21.00
2019-05-02T15:20:16.831Z,21.00
2019-05-02T15:22:57.513Z,21.00
2019-05-02T15:25:38.785Z,21.00
2019-05-02T15:28:22.959Z,21.00
2019-05-02T15:31:18.898Z,21.10
2019-05-02T15:34:06.154Z,21.00
2019-05-02T15:36:45.940Z,21.00
2019-05-02T15:42:01.641Z,20.20
2019-05-02T15:44:40.031Z,21.10
2019-05-02T15:47:17.585Z,20.80
2019-05-02T15:49:57.226Z,20.90
2019-05-02T15:55:15.532Z,21.30
2019-05-02T15:57:54.319Z,20.80
2019-05-02T16:00:37.247Z,21.40
2019-05-02T16:03:14.769Z,20.90
2019-05-02T16:05:52.617Z,21.10
2019-05-02T16:11:13.700Z,20.60
2019-05-02T16:13:55.704Z,20.60
2019-05-02T16:16:32.066Z,21.00
2019-05-02T16:19:14.997Z,20.80
2019-05-02T16:21:54.596Z,20.80
2019-05-02T16:24:33.881Z,20.80
2019-05-02T16:27:16.410Z,21.60
2019-05-02T16:29:58.427Z,20.70
2019-05-02T16:32:44.144Z,20.80
2019-05-02T16:35:22.273Z,20.60
2019-05-02T16:38:01.276Z,21.00
2019-05-02T16:40:38.877Z,20.70
2019-05-02T16:43:20.088Z,20.90
2019-05-02T16:46:01.718Z,20.60
2019-05-02T16:48:42.522Z,20.80
2019-05-02T16:51:30.053Z,20.80
2019-05-02T16:54:01.571Z,20.40
2019-05-02T16:56:42.391Z,20.80
2019-05-02T16:59:21.487Z,20.30
2019-05-02T17:01:59.576Z,20.30
2019-05-02T17:04:36.943Z,20.40
2019-05-02T17:07:19.461Z,20.30
2019-05-02T17:10:14.776Z,20.20
2019-05-02T17:12:56.428Z,20.10
2019-05-02T17:15:44.364Z,20.50
2019-05-02T17:20:57.063Z,20.40
2019-05-02T17:23:37.515Z,20.90
2019-05-02T17:26:13.728Z,20.20
2019-05-02T17:28:53.061Z,20.40
2019-05-02T17:31:32.261Z,20.40
2019-05-02T17:34:09.475Z,20.60
2019-05-02T17:39:23.276Z,20.30
2019-05-02T17:42:03.512Z,20.10
2019-05-02T17:44:44.186Z,20.50
2019-05-02T17:47:23.654Z,20.50
2019-05-02T17:50:06.822Z,20.60
2019-05-02T17:52:47.900Z,20.40
2019-05-02T17:55:25.431Z,20.40
2019-05-02T17:58:12.147Z,20.40
2019-05-02T18:03:44.894Z,20.50
2019-05-02T18:06:32.710Z,20.50
2019-05-02T18:09:03.263Z,20.50
2019-05-02T18:11:42.404Z,20.60
2019-05-02T18:14:21.504Z,20.50
2019-05-02T18:17:01.780Z,20.50
2019-05-02T18:19:40.163Z,20.60
2019-05-02T18:22:25.549Z,20.60
2019-05-02T18:24:59.327Z,20.50
2019-05-02T18:27:36.808Z,20.50
2019-05-02T18:30:17.228Z,20.50
2019-05-02T18:32:57.888Z,20.50
2019-05-02T18:35:37.428Z,20.50
2019-05-02T18:38:15.838Z,20.50
2019-05-02T18:40:55.354Z,20.50
2019-05-02T18:43:35.984Z,20.60
2019-05-02T18:46:12.766Z,20.50
2019-05-02T18:48:51.928Z,20.30
2019-05-02T18:51:32.108Z,20.20
2019-05-02T18:54:09.802Z,20.30
2019-05-02T18:56:53.046Z,20.30
2019-05-02T18:59:32.026Z,20.40
2019-05-02T19:02:09.656Z,20.30
2019-05-02T19:04:47.572Z,20.30
2019-05-02T19:07:32.580Z,20.30
2019-05-02T19:10:07.265Z,20.30
2019-05-02T19:12:44.415Z,20.40
2019-05-02T19:15:25.125Z,20.30
2019-05-02T19:18:02.727Z,20.40
2019-05-02T19:21:12.539Z,20.40
2019-05-02T19:23:51.706Z,20.40
2019-05-02T19:26:30.033Z,20.40
2019-05-02T19:29:17.550Z,20.60
2019-05-02T19:31:56.416Z,20.50
2019-05-02T19:34:41.750Z,20.50
2019-05-02T19:37:19.474Z,20.50
2019-05-02T19:39:58.682Z,20.40
2019-05-02T19:42:36.070Z,20.30
2019-05-02T19:45:16.908Z,20.30
2019-05-02T19:47:56.576Z,20.20
2019-05-02T19:50:45.228Z,20.20
2019-05-02T19:53:22.874Z,20.10
2019-05-02T19:56:03.023Z,20.20
2019-05-02T19:58:42.729Z,20.10
2019-05-02T20:01:23.060Z,20.10
2019-05-02T20:04:02.377Z,20.20
2019-05-02T20:06:39.554Z,20.10
2019-05-02T20:09:17.096Z,20.10
2019-05-02T20:11:54.767Z,20.10
2019-05-02T20:14:38.153Z,20.10
2019-05-02T20:17:20.343Z,20.10
2019-05-02T20:20:05.518Z,20.20
2019-05-02T20:22:40.949Z,20.20
2019-05-02T20:25:19.027Z,20.10
2019-05-02T20:27:56.445Z,20.20
2019-05-02T20:30:35.327Z,20.10
2019-05-02T20:33:12.863Z,20.20
2019-05-02T20:35:52.665Z,20.20
2019-05-02T20:38:29.018Z,20.30
2019-05-02T20:41:06.409Z,20.40
2019-05-02T20:43:45.343Z,20.40
2019-05-02T20:46:24.256Z,20.50
2019-05-02T20:49:03.558Z,20.50
2019-05-02T20:51:44.678Z,20.30
2019-05-02T20:54:23.376Z,20.50
2019-05-02T20:57:02.540Z,20.60
2019-05-02T20:59:41.607Z,20.60
2019-05-02T21:02:20.661Z,20.60
2019-05-02T21:05:02.746Z,20.70
2019-05-02T21:07:49.319Z,20.70
2019-05-02T21:10:35.295Z,20.80
2019-05-02T21:15:52.413Z,20.80
2019-05-02T21:18:30.083Z,21.00
2019-05-02T21:26:22.059Z,21.10
2019-05-02T21:28:58.828Z,20.90
2019-05-02T21:36:46.108Z,21.00
2019-05-02T21:39:23.523Z,21.00
2019-05-02T21:42:03.465Z,21.00
2019-05-02T21:44:42.255Z,21.00
2019-05-02T21:47:23.215Z,21.10
2019-05-02T21:50:06.947Z,21.10
2019-05-02T21:53:22.058Z,21.00
2019-05-02T21:56:12.169Z,21.10
2019-05-02T21:59:04.172Z,21.20
2019-05-02T22:01:48.236Z,21.10
2019-05-02T22:04:27.899Z,22.20
2019-05-02T22:07:09.081Z,21.10
2019-05-02T22:09:47.753Z,21.20
2019-05-02T22:12:25.213Z,21.30
2019-05-02T22:15:02.611Z,21.30
2019-05-02T22:17:41.521Z,21.40
2019-05-02T22:20:19.682Z,21.30
2019-05-02T22:22:59.598Z,21.40
2019-05-02T22:25:41.871Z,21.30
2019-05-02T22:28:18.755Z,21.20
2019-05-02T22:30:59.606Z,21.40
2019-05-02T22:33:38.733Z,21.30
2019-05-02T22:36:16.298Z,21.30
2019-05-02T22:39:08.275Z,21.30
2019-05-02T22:44:22.024Z,21.50
2019-05-02T22:47:00.665Z,21.50
2019-05-02T22:49:39.692Z,21.20
2019-05-02T22:52:21.802Z,21.60
2019-05-02T22:54:59.140Z,21.80
2019-05-02T22:57:36.567Z,21.60
2019-05-02T23:00:14.835Z,21.80
2019-05-02T23:02:52.457Z,21.90
2019-05-02T23:05:34.405Z,22.00
2019-05-02T23:18:31.945Z,22.30
2019-05-02T23:21:09.688Z,22.30
2019-05-02T23:23:47.200Z,22.30
2019-05-02T23:26:49.044Z,22.40
2019-05-02T23:34:38.977Z,22.30
2019-05-02T23:37:17.136Z,22.30
2019-05-02T23:39:54.663Z,22.30
2019-05-02T23:42:32.107Z,22.50
2019-05-02T23:45:11.963Z,22.30
2019-05-02T23:50:23.590Z,22.40
2019-05-02T23:53:02.338Z,22.60
2019-05-02T23:55:39.624Z,23.60
